createdAt,value
2022-12-18T00:01:17.964Z,-2.76
2022-12-18T00:03:45.607Z,-2.79
2022-12-18T00:06:13.103Z,-2.85
2022-12-18T00:08:39.682Z,-2.85
2022-12-18T00:11:11.436Z,-2.87
2022-12-18T00:13:38.458Z,-2.91
2022-12-18T00:16:07.940Z,-2.96
2022-12-18T00:18:34.683Z,-2.96
2022-12-18T00:21:03.955Z,-2.99
2022-12-18T00:23:31.384Z,-3.02
2022-12-18T00:26:05.542Z,-3.01
2022-12-18T00:28:32.437Z,-3.05
2022-12-18T00:31:05.671Z,-3.05
2022-12-18T00:33:32.658Z,-3.04
2022-12-18T00:36:09.218Z,-3.06
2022-12-18T00:38:36.020Z,-3.06
2022-12-18T00:41:03.086Z,-3.07
2022-12-18T00:43:29.864Z,-3.08
2022-12-18T00:45:56.594Z,-3.08
2022-12-18T00:48:23.745Z,-3.12
2022-12-18T00:50:50.980Z,-3.12
2022-12-18T00:53:17.645Z,-3.12
2022-12-18T00:55:45.295Z,-3.11
2022-12-18T00:58:13.928Z,-3.12
2022-12-18T01:00:40.851Z,-3.12
2022-12-18T01:03:07.859Z,-3.12
2022-12-18T01:05:34.912Z,-3.14
2022-12-18T01:08:01.553Z,-3.15
2022-12-18T01:10:28.300Z,-3.19
2022-12-18T01:12:54.811Z,-3.19
2022-12-18T01:15:21.543Z,-3.21
2022-12-18T01:17:48.430Z,-3.21
2022-12-18T01:20:15.005Z,-3.22
2022-12-18T01:22:41.726Z,-3.22
2022-12-18T01:25:09.297Z,-3.24
2022-12-18T01:27:35.912Z,-3.24
2022-12-18T01:30:02.553Z,-3.26
2022-12-18T01:32:31.670Z,-3.26
2022-12-18T01:34:58.370Z,-3.28
2022-12-18T01:37:25.374Z,-3.27
2022-12-18T01:39:55.409Z,-3.27
2022-12-18T01:42:22.632Z,-3.27
2022-12-18T01:45:03.502Z,-3.27
2022-12-18T01:47:39.067Z,-3.30
2022-12-18T01:50:11.792Z,-3.33
2022-12-18T01:52:39.743Z,-3.35
2022-12-18T01:55:08.189Z,-3.37
2022-12-18T01:57:35.972Z,-3.39
2022-12-18T02:00:07.659Z,-3.42
2022-12-18T02:02:34.307Z,-3.47
2022-12-18T02:05:01.661Z,-3.48
2022-12-18T02:07:31.268Z,-3.50
2022-12-18T02:10:16.135Z,-3.52
2022-12-18T02:13:01.914Z,-3.55
2022-12-18T02:15:42.383Z,-3.57
2022-12-18T02:18:20.258Z,-3.60
2022-12-18T02:20:59.769Z,-3.62
2022-12-18T02:23:53.672Z,-3.65
2022-12-18T02:26:30.852Z,-3.69
2022-12-18T02:29:06.118Z,-3.69
2022-12-18T02:31:41.198Z,-3.71
2022-12-18T02:34:10.940Z,-3.75
2022-12-18T02:36:40.463Z,-3.76
2022-12-18T02:39:10.590Z,-3.78
2022-12-18T02:41:37.750Z,-3.79
2022-12-18T02:44:11.667Z,-3.82
2022-12-18T02:46:46.081Z,-3.84
2022-12-18T02:49:38.079Z,-3.88
2022-12-18T02:52:18.162Z,-3.91
2022-12-18T02:55:01.660Z,-3.93
2022-12-18T02:57:49.889Z,-3.95
2022-12-18T03:00:25.230Z,-3.96
2022-12-18T03:02:57.732Z,-3.98
2022-12-18T03:05:32.586Z,-4.00
2022-12-18T03:08:05.654Z,-4.01
2022-12-18T03:10:36.425Z,-4.03
2022-12-18T03:13:15.158Z,-4.07
2022-12-18T03:15:47.195Z,-4.08
2022-12-18T03:18:31.188Z,-4.12
2022-12-18T03:21:01.890Z,-4.13
2022-12-18T03:23:33.546Z,-4.15
2022-12-18T03:26:07.413Z,-4.17
2022-12-18T03:28:39.758Z,-4.21
2022-12-18T03:31:10.233Z,-4.26
2022-12-18T03:33:46.587Z,-4.27
2022-12-18T03:36:13.599Z,-4.30
2022-12-18T03:38:40.206Z,-4.30
2022-12-18T03:41:15.759Z,-4.31
2022-12-18T03:43:50.212Z,-4.32
2022-12-18T03:46:27.222Z,-4.33
2022-12-18T03:49:00.995Z,-4.34
2022-12-18T03:51:38.266Z,-4.37
2022-12-18T03:54:07.466Z,-4.37
2022-12-18T03:56:41.317Z,-4.38
2022-12-18T03:59:11.036Z,-4.39
2022-12-18T04:01:41.985Z,-4.39
2022-12-18T04:04:11.029Z,-4.40
2022-12-18T04:06:39.630Z,-4.41
2022-12-18T04:09:06.670Z,-4.44
2022-12-18T04:11:33.311Z,-4.45
2022-12-18T04:14:01.946Z,-4.46
2022-12-18T04:16:31.351Z,-4.47
2022-12-18T04:18:58.177Z,-4.49
2022-12-18T04:21:24.897Z,-4.50
2022-12-18T04:23:51.426Z,-4.51
2022-12-18T04:26:18.423Z,-4.52
2022-12-18T04:28:45.074Z,-4.53
2022-12-18T04:31:11.740Z,-4.54
2022-12-18T04:33:38.865Z,-4.54
2022-12-18T04:36:06.257Z,-4.56
2022-12-18T04:38:33.465Z,-4.58
2022-12-18T04:41:00.053Z,-4.59
2022-12-18T04:43:26.634Z,-4.60
2022-12-18T04:45:53.301Z,-4.59
2022-12-18T04:48:21.193Z,-4.59
2022-12-18T04:50:48.991Z,-4.61
2022-12-18T04:53:15.487Z,-4.61
2022-12-18T04:55:42.002Z,-4.62
2022-12-18T04:58:08.573Z,-4.63
2022-12-18T05:00:36.489Z,-4.66
2022-12-18T05:03:04.111Z,-4.66
2022-12-18T05:05:30.979Z,-4.64
2022-12-18T05:07:57.919Z,-4.66
2022-12-18T05:10:24.871Z,-4.67
2022-12-18T05:13:01.164Z,-4.68
2022-12-18T05:15:30.258Z,-4.67
2022-12-18T05:17:58.026Z,-4.68
2022-12-18T05:20:25.669Z,-4.67
2022-12-18T05:22:53.392Z,-4.69
2022-12-18T05:25:20.810Z,-4.70
2022-12-18T05:27:47.470Z,-4.71
2022-12-18T05:30:14.454Z,-4.73
2022-12-18T05:32:41.549Z,-4.71
2022-12-18T05:35:10.180Z,-4.73
2022-12-18T05:37:41.183Z,-4.75
2022-12-18T05:40:10.566Z,-4.74
2022-12-18T05:42:37.202Z,-4.74
2022-12-18T05:45:04.267Z,-4.74
2022-12-18T05:47:30.862Z,-4.74
2022-12-18T05:49:57.732Z,-4.76
2022-12-18T05:52:24.825Z,-4.75
2022-12-18T05:54:51.396Z,-4.78
2022-12-18T05:57:18.054Z,-4.78
2022-12-18T05:59:44.644Z,-4.79
2022-12-18T06:02:11.267Z,-4.80
2022-12-18T06:04:37.943Z,-4.82
2022-12-18T06:07:04.613Z,-4.83
2022-12-18T06:09:31.264Z,-4.84
2022-12-18T06:11:57.833Z,-4.84
2022-12-18T06:14:24.465Z,-4.86
2022-12-18T06:16:54.260Z,-4.88
2022-12-18T06:19:21.070Z,-4.88
2022-12-18T06:21:47.995Z,-4.89
2022-12-18T06:24:14.712Z,-4.90
2022-12-18T06:26:41.229Z,-4.93
2022-12-18T06:29:07.954Z,-4.95
2022-12-18T06:31:34.593Z,-4.96
2022-12-18T06:34:03.995Z,-4.98
2022-12-18T06:36:30.695Z,-4.99
2022-12-18T06:38:57.506Z,-4.99
2022-12-18T06:41:24.402Z,-5.01
2022-12-18T06:43:52.250Z,-5.02
2022-12-18T06:46:21.512Z,-5.06
2022-12-18T06:48:50.130Z,-5.06
2022-12-18T06:51:18.888Z,-5.07
2022-12-18T06:53:45.815Z,-5.10
2022-12-18T06:56:12.465Z,-5.11
2022-12-18T06:58:39.976Z,-5.13
2022-12-18T07:01:09.142Z,-5.13
2022-12-18T07:03:36.030Z,-5.16
2022-12-18T07:06:03.239Z,-5.18
2022-12-18T07:08:31.174Z,-5.19
2022-12-18T07:10:57.922Z,-5.20
2022-12-18T07:13:24.612Z,-5.22
2022-12-18T07:15:51.226Z,-5.22
2022-12-18T07:18:17.862Z,-5.21
2022-12-18T07:20:45.219Z,-5.23
2022-12-18T07:23:12.559Z,-5.27
2022-12-18T07:25:39.489Z,-5.26
2022-12-18T07:28:06.241Z,-5.27
2022-12-18T07:30:32.779Z,-5.28
2022-12-18T07:32:59.360Z,-5.29
2022-12-18T07:35:25.918Z,-5.26
2022-12-18T07:37:52.426Z,-5.23
2022-12-18T07:40:19.335Z,-5.18
2022-12-18T07:42:46.071Z,-5.10
2022-12-18T07:45:12.588Z,-5.03
2022-12-18T07:47:39.153Z,-4.96
2022-12-18T07:50:06.622Z,-4.90
2022-12-18T07:52:33.259Z,-4.84
2022-12-18T07:55:02.359Z,-4.77
2022-12-18T08:00:16.123Z,-4.64
2022-12-18T08:02:42.905Z,-4.58
2022-12-18T08:05:09.793Z,-4.51
2022-12-18T08:07:36.490Z,-4.43
2022-12-18T08:10:03.220Z,-4.36
2022-12-18T08:12:30.634Z,-4.29
2022-12-18T08:14:57.173Z,-4.24
2022-12-18T08:17:23.779Z,-4.18
2022-12-18T08:19:50.548Z,-4.10
2022-12-18T08:22:17.146Z,-4.01
2022-12-18T08:24:44.042Z,-3.98
2022-12-18T08:27:28.910Z,-3.93
2022-12-18T08:29:56.875Z,-3.87
2022-12-18T08:32:23.908Z,-3.81
2022-12-18T08:34:50.599Z,-3.73
2022-12-18T08:37:17.119Z,-3.65
2022-12-18T08:39:43.651Z,-3.60
2022-12-18T08:42:28.801Z,-3.55
2022-12-18T08:44:55.409Z,-3.49
2022-12-18T08:47:21.973Z,-3.44
2022-12-18T08:49:48.461Z,-3.40
2022-12-18T08:52:15.015Z,-3.35
2022-12-18T08:54:41.584Z,-3.30
2022-12-18T08:57:08.151Z,-3.26
2022-12-18T08:59:34.727Z,-3.23
2022-12-18T09:02:01.447Z,-3.17
2022-12-18T09:04:28.147Z,-3.13
2022-12-18T09:06:54.666Z,-3.07
2022-12-18T09:09:21.183Z,-3.02
2022-12-18T09:11:47.790Z,-2.96
2022-12-18T09:14:14.443Z,-2.92
2022-12-18T09:16:41.020Z,-2.87
2022-12-18T09:19:07.846Z,-2.80
2022-12-18T09:21:37.448Z,-2.74
2022-12-18T09:24:05.253Z,-2.69
2022-12-18T09:26:36.115Z,-2.62
2022-12-18T09:29:03.721Z,-2.56
2022-12-18T09:31:30.267Z,-2.53
2022-12-18T09:33:57.721Z,-2.48
2022-12-18T09:36:24.397Z,-2.44
2022-12-18T09:38:51.488Z,-2.41
2022-12-18T09:41:48.296Z,-2.34
2022-12-18T09:44:26.041Z,-2.27
2022-12-18T09:47:02.148Z,-2.20
2022-12-18T09:49:33.381Z,-2.17
2022-12-18T09:52:05.986Z,-2.11
2022-12-18T09:54:44.484Z,-2.05
2022-12-18T09:57:24.328Z,-1.99
2022-12-18T10:00:04.270Z,-1.96
2022-12-18T10:02:33.172Z,-1.91
2022-12-18T10:05:15.237Z,-1.86
2022-12-18T10:08:00.632Z,-1.78
2022-12-18T10:10:30.209Z,-1.74
2022-12-18T10:13:05.713Z,-1.68
2022-12-18T10:15:46.322Z,-1.61
2022-12-18T10:18:21.599Z,-1.58
2022-12-18T10:20:55.660Z,-1.50
2022-12-18T10:23:42.420Z,-1.45
2022-12-18T10:26:15.867Z,-1.41
2022-12-18T10:28:45.116Z,-1.35
2022-12-18T10:31:24.330Z,-1.30
2022-12-18T10:33:52.384Z,-1.23
2022-12-18T10:36:19.268Z,-1.22
2022-12-18T10:38:45.990Z,-1.18
2022-12-18T10:41:18.633Z,-1.12
2022-12-18T10:43:45.858Z,-1.09
2022-12-18T10:46:12.433Z,-1.03
2022-12-18T10:48:48.961Z,-0.99
2022-12-18T10:51:31.491Z,-0.93
2022-12-18T10:54:02.819Z,-0.90
2022-12-18T10:56:32.712Z,-0.88
2022-12-18T10:59:05.958Z,-0.84
2022-12-18T11:01:53.537Z,-0.78
2022-12-18T11:04:25.726Z,-0.74
2022-12-18T11:07:01.146Z,-0.72
2022-12-18T11:09:32.841Z,-0.68
2022-12-18T11:12:02.316Z,-0.66
2022-12-18T11:14:33.319Z,-0.64
2022-12-18T11:19:57.706Z,-0.56
2022-12-18T11:22:28.916Z,-0.51
2022-12-18T11:27:56.824Z,-0.43
2022-12-18T11:30:29.319Z,-0.39
2022-12-18T11:33:18.633Z,-0.35
2022-12-18T11:35:51.084Z,-0.31
2022-12-18T11:38:27.870Z,-0.25
2022-12-18T11:41:01.525Z,-0.23
2022-12-18T11:43:34.509Z,-0.20
2022-12-18T11:46:13.500Z,-0.16
2022-12-18T11:48:55.219Z,-0.11
2022-12-18T11:51:29.735Z,-0.08
2022-12-18T11:53:56.275Z,-0.05
2022-12-18T11:56:45.160Z,-0.01
2022-12-18T11:59:38.159Z,0.03
2022-12-18T12:02:23.430Z,0.06
2022-12-18T12:05:20.917Z,0.08
2022-12-18T12:07:50.593Z,0.10
2022-12-18T12:10:32.356Z,0.09
2022-12-18T12:13:05.622Z,0.13
2022-12-18T12:15:32.180Z,0.16
2022-12-18T12:18:23.924Z,0.18
2022-12-18T12:20:54.275Z,0.20
2022-12-18T12:23:29.899Z,0.21
2022-12-18T12:26:02.270Z,0.23
2022-12-18T12:28:58.465Z,0.27
2022-12-18T12:31:52.801Z,0.29
2022-12-18T12:34:19.569Z,0.32
2022-12-18T12:37:10.232Z,0.34
2022-12-18T12:39:40.640Z,0.34
2022-12-18T12:42:36.996Z,0.37
2022-12-18T12:45:07.835Z,0.42
2022-12-18T12:47:39.626Z,0.35
2022-12-18T12:50:13.530Z,0.39
2022-12-18T12:52:55.629Z,0.42
2022-12-18T12:55:25.374Z,0.44
2022-12-18T12:58:32.540Z,0.45
2022-12-18T13:01:05.092Z,0.48
2022-12-18T13:03:51.302Z,0.50
2022-12-18T13:06:43.011Z,0.54
2022-12-18T13:09:11.590Z,0.56
2022-12-18T13:12:00.614Z,0.56
2022-12-18T13:14:29.771Z,0.59
2022-12-18T13:17:21.582Z,0.63
2022-12-18T13:19:53.589Z,0.64
2022-12-18T13:22:30.347Z,0.64
2022-12-18T13:24:58.542Z,0.65
2022-12-18T13:28:04.503Z,0.67
2022-12-18T13:30:34.072Z,0.67
2022-12-18T13:33:18.264Z,0.70
2022-12-18T13:35:47.621Z,0.70
2022-12-18T13:38:32.948Z,0.70
2022-12-18T13:41:01.241Z,0.71
2022-12-18T13:43:37.027Z,0.71
2022-12-18T13:46:22.489Z,0.71
2022-12-18T13:48:54.960Z,0.73
2022-12-18T13:51:23.258Z,0.74
2022-12-18T13:53:55.719Z,0.76
2022-12-18T13:56:25.433Z,0.78
2022-12-18T13:59:13.373Z,0.75
2022-12-18T14:01:48.985Z,0.75
2022-12-18T14:04:26.359Z,0.75
2022-12-18T14:07:04.925Z,0.76
2022-12-18T14:09:40.447Z,0.76
2022-12-18T14:12:26.203Z,0.76
2022-12-18T14:14:55.611Z,0.78
2022-12-18T14:17:24.053Z,0.79
2022-12-18T14:19:52.279Z,0.79
2022-12-18T14:22:31.152Z,0.80
2022-12-18T14:25:14.408Z,0.83
2022-12-18T14:28:07.510Z,0.82
2022-12-18T14:30:40.902Z,0.83
2022-12-18T14:33:12.549Z,0.82
2022-12-18T14:35:42.242Z,0.85
2022-12-18T14:38:21.430Z,0.87
2022-12-18T14:40:48.236Z,0.87
2022-12-18T14:43:14.813Z,0.88
2022-12-18T14:45:45.505Z,0.85
2022-12-18T14:48:12.567Z,0.86
2022-12-18T14:50:40.784Z,0.86
2022-12-18T14:53:19.524Z,0.86
2022-12-18T14:55:49.855Z,0.85
2022-12-18T14:58:18.489Z,0.85
2022-12-18T15:00:45.210Z,0.84
2022-12-18T15:03:19.466Z,0.85
2022-12-18T15:05:46.394Z,0.88
2022-12-18T15:08:32.486Z,0.87
2022-12-18T15:10:59.602Z,0.87
2022-12-18T15:13:26.293Z,0.87
2022-12-18T15:15:55.678Z,0.88
2022-12-18T15:18:31.204Z,0.87
2022-12-18T15:21:00.219Z,0.87
2022-12-18T15:23:47.359Z,0.89
2022-12-18T15:26:17.172Z,0.90
2022-12-18T15:28:49.793Z,0.87
2022-12-18T15:31:18.112Z,0.89
2022-12-18T15:33:53.969Z,0.85
2022-12-18T15:36:26.379Z,0.85
2022-12-18T15:38:55.169Z,0.86
2022-12-18T15:41:25.895Z,0.85
2022-12-18T15:43:54.193Z,0.88
2022-12-18T15:46:25.368Z,0.89
2022-12-18T15:48:59.768Z,0.88
2022-12-18T15:51:30.444Z,0.86
2022-12-18T15:53:59.506Z,0.85
2022-12-18T15:56:44.542Z,0.87
2022-12-18T15:59:13.549Z,0.88
2022-12-18T16:01:42.795Z,0.86
2022-12-18T16:04:13.035Z,0.85
2022-12-18T16:07:05.333Z,0.86
2022-12-18T16:09:26.622Z,0.85
2022-12-18T16:11:53.499Z,0.85
2022-12-18T16:14:27.616Z,0.82
2022-12-18T16:16:56.907Z,0.86
2022-12-18T16:19:24.451Z,0.86
2022-12-18T16:21:53.312Z,0.84
2022-12-18T16:24:25.161Z,0.87
2022-12-18T16:26:52.888Z,0.87
2022-12-18T16:29:20.399Z,0.89
2022-12-18T16:31:50.627Z,0.88
2022-12-18T16:34:29.181Z,0.87
2022-12-18T16:37:03.112Z,0.85
2022-12-18T16:39:32.907Z,0.89
2022-12-18T16:42:00.025Z,0.90
2022-12-18T16:44:28.681Z,0.89
2022-12-18T16:46:55.598Z,0.89
2022-12-18T16:49:22.429Z,0.88
2022-12-18T16:51:49.505Z,0.91
2022-12-18T16:54:19.171Z,0.90
2022-12-18T16:56:49.837Z,0.92
2022-12-18T16:59:16.678Z,0.94
2022-12-18T17:01:44.639Z,0.93
2022-12-18T17:04:11.512Z,0.95
2022-12-18T17:06:43.783Z,0.91
2022-12-18T17:09:15.530Z,0.94
2022-12-18T17:11:42.735Z,0.93
2022-12-18T17:14:12.939Z,0.95
2022-12-18T17:16:40.228Z,0.96
2022-12-18T17:19:12.133Z,0.97
2022-12-18T17:21:42.144Z,0.98
2022-12-18T17:24:09.377Z,0.99
2022-12-18T17:26:36.609Z,1.03
2022-12-18T17:29:03.867Z,1.03
2022-12-18T17:31:31.050Z,1.07
2022-12-18T17:33:58.622Z,1.03
2022-12-18T17:36:28.979Z,1.04
2022-12-18T17:38:58.129Z,1.06
2022-12-18T17:41:25.832Z,1.05
2022-12-18T17:43:53.782Z,1.05
2022-12-18T17:46:20.553Z,1.03
2022-12-18T17:48:47.576Z,1.09
2022-12-18T17:51:16.185Z,1.06
2022-12-18T17:53:43.446Z,1.05
2022-12-18T17:56:13.915Z,1.07
2022-12-18T17:58:40.732Z,1.07
2022-12-18T18:01:08.294Z,1.08
2022-12-18T18:03:38.218Z,1.07
2022-12-18T18:06:05.351Z,1.06
2022-12-18T18:08:34.710Z,1.07
2022-12-18T18:11:31.997Z,1.08
2022-12-18T18:14:02.225Z,1.09
2022-12-18T18:16:30.431Z,1.07
2022-12-18T18:18:58.777Z,1.08
2022-12-18T18:21:25.635Z,1.11
2022-12-18T18:23:52.736Z,1.11
2022-12-18T18:26:20.091Z,1.16
2022-12-18T18:28:46.724Z,1.15
2022-12-18T18:31:13.379Z,1.15
2022-12-18T18:33:40.522Z,1.16
2022-12-18T18:36:10.513Z,1.13
2022-12-18T18:38:38.981Z,1.13
2022-12-18T18:41:06.112Z,1.17
2022-12-18T18:43:33.074Z,1.20
2022-12-18T18:46:01.812Z,1.20
2022-12-18T18:48:33.936Z,1.23
2022-12-18T18:51:08.455Z,1.20
2022-12-18T18:53:40.008Z,1.25
2022-12-18T18:58:56.482Z,1.28
2022-12-18T19:01:24.241Z,1.31
2022-12-18T19:03:51.476Z,1.33
2022-12-18T19:06:20.964Z,1.30
2022-12-18T19:08:48.432Z,1.30
2022-12-18T19:11:36.477Z,1.33
2022-12-18T19:14:05.848Z,1.34
2022-12-18T19:16:34.096Z,1.37
2022-12-18T19:19:02.312Z,1.38
2022-12-18T19:21:33.873Z,1.40
2022-12-18T19:24:01.677Z,1.43
2022-12-18T19:26:28.815Z,1.45
2022-12-18T19:29:07.744Z,1.47
2022-12-18T19:31:36.326Z,1.45
2022-12-18T19:34:05.017Z,1.49
2022-12-18T19:36:32.886Z,1.51
2022-12-18T19:39:01.691Z,1.51
2022-12-18T19:41:37.680Z,1.50
2022-12-18T19:44:07.748Z,1.51
2022-12-18T19:46:35.911Z,1.54
2022-12-18T19:49:03.020Z,1.57
2022-12-18T19:51:31.673Z,1.59
2022-12-18T19:54:01.724Z,1.61
2022-12-18T19:56:31.514Z,1.63
2022-12-18T19:58:58.470Z,1.67
2022-12-18T20:01:26.573Z,1.63
2022-12-18T20:03:55.890Z,1.61
2022-12-18T20:06:30.318Z,1.61
2022-12-18T20:09:00.677Z,1.56
2022-12-18T20:11:28.878Z,1.56
2022-12-18T20:13:55.545Z,1.56
2022-12-18T20:16:22.087Z,1.54
2022-12-18T20:18:49.252Z,1.53
2022-12-18T20:21:16.103Z,1.50
2022-12-18T20:23:43.638Z,1.48
2022-12-18T20:26:10.986Z,1.46
2022-12-18T20:28:37.864Z,1.45
2022-12-18T20:31:10.506Z,1.44
2022-12-18T20:33:42.030Z,1.43
2022-12-18T20:36:13.725Z,1.40
2022-12-18T20:38:41.732Z,1.40
2022-12-18T20:41:12.589Z,1.44
2022-12-18T20:43:39.775Z,1.34
2022-12-18T20:46:16.191Z,1.33
2022-12-18T20:48:44.709Z,1.31
2022-12-18T20:51:15.246Z,1.32
2022-12-18T20:53:42.597Z,1.31
2022-12-18T20:56:12.622Z,1.30
2022-12-18T20:58:39.219Z,1.31
2022-12-18T21:01:07.731Z,1.32
2022-12-18T21:03:34.494Z,1.27
2022-12-18T21:06:01.026Z,1.23
2022-12-18T21:08:27.528Z,1.18
2022-12-18T21:10:55.487Z,1.09
2022-12-18T21:13:22.622Z,1.05
2022-12-18T21:15:49.463Z,0.97
2022-12-18T21:18:16.260Z,0.92
2022-12-18T21:20:43.094Z,0.88
2022-12-18T21:23:15.679Z,0.81
2022-12-18T21:25:42.828Z,0.75
2022-12-18T21:28:09.415Z,0.70
2022-12-18T21:30:36.101Z,0.65
2022-12-18T21:33:02.779Z,0.61
2022-12-18T21:35:29.374Z,0.55
2022-12-18T21:37:58.850Z,0.50
2022-12-18T21:40:25.526Z,0.46
2022-12-18T21:43:10.541Z,0.44
2022-12-18T21:45:41.709Z,0.39
2022-12-18T21:48:08.289Z,0.37
2022-12-18T21:50:34.809Z,0.32
2022-12-18T21:53:01.301Z,0.30
2022-12-18T21:55:27.901Z,0.28
2022-12-18T21:57:54.396Z,0.27
2022-12-18T22:00:21.035Z,0.23
2022-12-18T22:03:01.114Z,0.24
2022-12-18T22:05:35.938Z,0.22
2022-12-18T22:08:02.480Z,0.21
2022-12-18T22:10:29.036Z,0.19
2022-12-18T22:12:55.487Z,0.18
2022-12-18T22:15:22.192Z,0.18
2022-12-18T22:17:50.450Z,0.17
2022-12-18T22:20:20.482Z,0.16
2022-12-18T22:22:48.260Z,0.16
2022-12-18T22:25:15.002Z,0.17
2022-12-18T22:27:41.504Z,0.16
2022-12-18T22:30:08.632Z,0.14
2022-12-18T22:32:36.366Z,0.14
2022-12-18T22:35:09.537Z,0.14
2022-12-18T22:37:40.840Z,0.13
2022-12-18T22:40:08.634Z,0.14
2022-12-18T22:42:35.455Z,0.14
2022-12-18T22:45:02.005Z,0.14
2022-12-18T22:47:30.405Z,0.16
2022-12-18T22:49:57.694Z,0.14
2022-12-18T22:52:25.065Z,0.16
2022-12-18T22:54:53.559Z,0.14
2022-12-18T22:57:20.589Z,0.16
2022-12-18T22:59:47.104Z,0.16
2022-12-18T23:02:13.691Z,0.15
2022-12-18T23:04:40.357Z,0.18
2022-12-18T23:07:06.960Z,0.16
2022-12-18T23:09:33.485Z,0.17
2022-12-18T23:12:00.352Z,0.17
2022-12-18T23:14:28.062Z,0.20
2022-12-18T23:16:54.711Z,0.18
2022-12-18T23:19:23.632Z,0.18
2022-12-18T23:21:50.795Z,0.20
2022-12-18T23:24:17.361Z,0.22
2022-12-18T23:26:43.968Z,0.23
2022-12-18T23:29:10.607Z,0.25
2022-12-18T23:31:39.180Z,0.23
2022-12-18T23:34:07.137Z,0.24
2022-12-18T23:36:45.616Z,0.26
2022-12-18T23:39:29.124Z,0.28
2022-12-18T23:41:58.126Z,0.26
2022-12-18T23:44:25.022Z,0.27
2022-12-18T23:46:51.574Z,0.30
2022-12-18T23:49:18.136Z,0.30
2022-12-18T23:51:45.168Z,0.31
2022-12-18T23:54:11.751Z,0.30
2022-12-18T23:56:38.238Z,0.30
2022-12-18T23:59:05.048Z,0.30
